Time;durP1;ratioP1;P1;durP2;ratioP2;P2;SDS_P1;SDS_P2;PMS_P1;PMS_P2;Temp;Humidity;BMP_temperature;BMP_pressure;BME280_temperature;BME280_humidity;BME280_pressure;Samples;Min_cycle;Max_cycle;Signal;HPM_P1;HPM_P2
2023/04/16 00:01:51;;;;;;;4.05;1.75;;;;;;;;;;4972423;28;20058;-73
2023/04/16 00:04:17;;;;;;;3.97;2.17;;;;;;;;;;4972447;28;20064;-70
2023/04/16 00:06:43;;;;;;;3.00;1.60;;;;;;;;;;4972387;28;20052;-73
2023/04/16 00:09:09;;;;;;;3.67;1.60;;;;;;;;;;4972599;28;20033;-73
2023/04/16 00:11:35;;;;;;;3.00;1.67;;;;;;;;;;4972362;28;20030;-74
2023/04/16 00:14:01;;;;;;;4.60;1.98;;;;;;;;;;4972412;28;20502;-72
2023/04/16 00:16:27;;;;;;;3.95;1.63;;;;;;;;;;4973140;28;20137;-65
2023/04/16 00:18:53;;;;;;;3.80;1.83;;;;;;;;;;4972424;28;20101;-61
2023/04/16 00:21:19;;;;;;;3.90;1.55;;;;;;;;;;4972474;28;20031;-61
2023/04/16 00:23:45;;;;;;;4.68;1.90;;;;;;;;;;4972098;28;20031;-67
2023/04/16 00:26:11;;;;;;;6.25;2.05;;;;;;;;;;4972049;28;20503;-67
2023/04/16 00:28:37;;;;;;;3.78;1.77;;;;;;;;;;4971907;28;20101;-59
2023/04/16 00:31:03;;;;;;;9.43;2.17;;;;;;;;;;4972204;28;20053;-63
2023/04/16 00:33:29;;;;;;;2.50;1.63;;;;;;;;;;4972540;28;20050;-59
2023/04/16 00:35:55;;;;;;;3.28;1.80;;;;;;;;;;4964309;28;20027;-60
2023/04/16 00:38:21;;;;;;;4.47;1.65;;;;;;;;;;4956778;28;20027;-61
2023/04/16 00:40:47;;;;;;;3.50;1.63;;;;;;;;;;4971769;28;20085;-67
2023/04/16 00:43:21;;;;;;;2.85;1.70;;;;;;;;;;4971990;28;20030;-68
2023/04/16 00:45:47;;;;;;;4.30;1.85;;;;;;;;;;4971898;28;20043;-71
2023/04/16 00:48:13;;;;;;;4.00;1.90;;;;;;;;;;4971691;28;20459;-65
2023/04/16 00:50:39;;;;;;;4.50;1.67;;;;;;;;;;4971731;28;20035;-68
2023/04/16 00:53:06;;;;;;;3.38;1.60;;;;;;;;;;4972011;28;20035;-67
2023/04/16 00:55:32;;;;;;;3.92;2.08;;;;;;;;;;4971404;28;20471;-61
2023/04/16 00:57:58;;;;;;;2.95;1.30;;;;;;;;;;4972040;28;20033;-70
2023/04/16 01:00:25;;;;;;;4.35;1.83;;;;;;;;;;4971405;28;20511;-70
2023/04/16 01:02:51;;;;;;;3.92;1.77;;;;;;;;;;4971626;28;20113;-67
2023/04/16 01:05:17;;;;;;;4.13;1.90;;;;;;;;;;4971541;28;20495;-72
2023/04/16 01:07:43;;;;;;;5.25;1.80;;;;;;;;;;4971851;28;20539;-66
2023/04/16 01:10:09;;;;;;;7.47;1.90;;;;;;;;;;4971888;28;20098;-61
2023/04/16 01:12:35;;;;;;;4.32;1.58;;;;;;;;;;4971500;28;20038;-61
2023/04/16 01:15:01;;;;;;;3.58;1.90;;;;;;;;;;4971520;28;20022;-66
2023/04/16 01:17:27;;;;;;;3.53;1.80;;;;;;;;;;4972369;28;20030;-73
2023/04/16 01:19:53;;;;;;;3.78;1.52;;;;;;;;;;4970283;28;20030;-69
2023/04/16 01:22:19;;;;;;;5.25;1.88;;;;;;;;;;4971755;28;20110;-69
2023/04/16 01:24:45;;;;;;;3.85;1.73;;;;;;;;;;4970845;28;20522;-71
2023/04/16 01:27:11;;;;;;;3.78;1.55;;;;;;;;;;4971305;28;20026;-59
2023/04/16 01:29:37;;;;;;;4.45;1.35;;;;;;;;;;4971766;28;20105;-59
2023/04/16 01:32:03;;;;;;;3.65;1.67;;;;;;;;;;4970844;28;20030;-59
2023/04/16 01:34:29;;;;;;;4.05;1.40;;;;;;;;;;4974828;28;20081;-62
2023/04/16 01:36:55;;;;;;;2.70;1.20;;;;;;;;;;4975162;28;20034;-71
2023/04/16 01:39:21;;;;;;;3.13;1.75;;;;;;;;;;4975255;28;20031;-74
2023/04/16 01:41:47;;;;;;;3.75;1.33;;;;;;;;;;4974937;28;20494;-68
2023/04/16 01:44:13;;;;;;;3.13;1.48;;;;;;;;;;4975262;28;20046;-75
2023/04/16 01:46:39;;;;;;;4.13;1.80;;;;;;;;;;4975459;28;20019;-75
2023/04/16 01:49:06;;;;;;;4.75;2.15;;;;;;;;;;4974312;28;20046;-75
2023/04/16 01:51:32;;;;;;;4.53;2.13;;;;;;;;;;4974383;28;20034;-75
2023/04/16 01:53:58;;;;;;;3.95;1.40;;;;;;;;;;4975043;28;20034;-71
2023/04/16 01:56:24;;;;;;;2.75;1.25;;;;;;;;;;4974203;28;20023;-61
2023/04/16 01:58:50;;;;;;;3.30;1.65;;;;;;;;;;4974500;28;20065;-72
2023/04/16 02:01:16;;;;;;;3.80;1.55;;;;;;;;;;4974934;28;20439;-61
2023/04/16 02:03:42;;;;;;;3.53;1.55;;;;;;;;;;4974310;28;20042;-62
2023/04/16 02:06:08;;;;;;;3.63;1.42;;;;;;;;;;4974626;28;20483;-65
2023/04/16 02:08:34;;;;;;;6.15;1.70;;;;;;;;;;4959204;28;20070;-61
2023/04/16 02:11:00;;;;;;;4.15;1.45;;;;;;;;;;4964706;28;20031;-63
2023/04/16 02:13:27;;;;;;;3.53;1.92;;;;;;;;;;4974586;28;20038;-64
2023/04/16 02:15:53;;;;;;;1.90;1.40;;;;;;;;;;4974838;28;20019;-72
2023/04/16 02:18:19;;;;;;;4.53;1.48;;;;;;;;;;4974320;28;20038;-61
2023/04/16 02:20:46;;;;;;;3.05;1.45;;;;;;;;;;4974171;28;20031;-73
2023/04/16 02:23:13;;;;;;;3.22;1.40;;;;;;;;;;4974371;28;20495;-68
2023/04/16 02:25:44;;;;;;;4.50;1.60;;;;;;;;;;4973638;28;20503;-60
2023/04/16 02:28:10;;;;;;;3.60;1.60;;;;;;;;;;4974642;28;20118;-66
2023/04/16 02:30:37;;;;;;;5.05;1.70;;;;;;;;;;4974397;28;20094;-71
2023/04/16 02:33:07;;;;;;;4.93;1.40;;;;;;;;;;4974333;28;20037;-65
2023/04/16 02:35:34;;;;;;;3.67;1.42;;;;;;;;;;4973524;28;20030;-61
2023/04/16 02:38:00;;;;;;;3.42;1.42;;;;;;;;;;4964096;28;20483;-63
2023/04/16 02:40:26;;;;;;;3.80;1.48;;;;;;;;;;4959978;28;20126;-75
2023/04/16 02:42:53;;;;;;;6.30;1.60;;;;;;;;;;4973833;28;20035;-74
2023/04/16 02:45:19;;;;;;;4.78;1.73;;;;;;;;;;4973040;28;20058;-73
2023/04/16 02:47:45;;;;;;;5.03;1.92;;;;;;;;;;4973881;28;20066;-62
2023/04/16 02:50:11;;;;;;;3.47;1.45;;;;;;;;;;4973531;28;20031;-61
2023/04/16 02:52:37;;;;;;;3.05;1.33;;;;;;;;;;4973912;28;20053;-60
2023/04/16 02:55:03;;;;;;;3.10;1.70;;;;;;;;;;4973824;28;20030;-75
2023/04/16 02:57:29;;;;;;;2.83;1.40;;;;;;;;;;4974355;28;20130;-75
2023/04/16 02:59:55;;;;;;;4.85;1.52;;;;;;;;;;4973903;28;20455;-74
2023/04/16 03:02:21;;;;;;;2.95;1.63;;;;;;;;;;4973932;28;20030;-74
2023/04/16 03:04:47;;;;;;;4.63;1.70;;;;;;;;;;4973557;28;20124;-74
2023/04/16 03:07:13;;;;;;;3.50;1.65;;;;;;;;;;4973787;28;20030;-61
2023/04/16 03:09:40;;;;;;;4.18;1.48;;;;;;;;;;4959252;28;20035;-64
2023/04/16 03:12:06;;;;;;;5.47;1.92;;;;;;;;;;4954883;29;20396;-72
2023/04/16 03:14:32;;;;;;;4.45;1.73;;;;;;;;;;4972327;28;20057;-74
2023/04/16 03:16:58;;;;;;;3.72;1.48;;;;;;;;;;4974142;28;20403;-70
2023/04/16 03:19:24;;;;;;;3.25;1.38;;;;;;;;;;4973427;28;20035;-71
2023/04/16 03:21:50;;;;;;;4.60;1.48;;;;;;;;;;4973699;28;20031;-72
2023/04/16 03:24:16;;;;;;;2.95;1.35;;;;;;;;;;4972890;28;20034;-73
2023/04/16 03:26:42;;;;;;;2.45;1.20;;;;;;;;;;4972550;28;20518;-65
2023/04/16 03:29:08;;;;;;;3.90;1.40;;;;;;;;;;4973243;28;20039;-75
2023/04/16 03:31:34;;;;;;;5.60;1.65;;;;;;;;;;4973220;28;20034;-75
2023/04/16 03:34:00;;;;;;;3.80;1.35;;;;;;;;;;4973242;28;20535;-61
2023/04/16 03:36:26;;;;;;;4.65;1.80;;;;;;;;;;4973474;28;20029;-61
2023/04/16 03:38:52;;;;;;;3.45;1.35;;;;;;;;;;4965078;28;20093;-61
2023/04/16 03:41:18;;;;;;;3.35;1.60;;;;;;;;;;4954277;29;20435;-61
2023/04/16 03:43:45;;;;;;;2.50;1.25;;;;;;;;;;4965403;28;20047;-61
2023/04/16 03:46:11;;;;;;;2.30;1.38;;;;;;;;;;4972860;28;20491;-61
2023/04/16 03:48:37;;;;;;;3.05;1.30;;;;;;;;;;4972215;28;20554;-72
2023/04/16 03:51:03;;;;;;;3.92;1.45;;;;;;;;;;4972651;28;20122;-70
2023/04/16 03:53:29;;;;;;;7.70;1.45;;;;;;;;;;4972911;28;20097;-69
2023/04/16 03:55:55;;;;;;;3.83;1.88;;;;;;;;;;4972401;28;20034;-62
2023/04/16 03:58:21;;;;;;;3.65;1.38;;;;;;;;;;4972940;28;20030;-60
2023/04/16 04:00:47;;;;;;;3.38;1.42;;;;;;;;;;4972280;28;20085;-63
2023/04/16 04:03:15;;;;;;;4.35;1.52;;;;;;;;;;4972573;28;20054;-71
2023/04/16 04:05:42;;;;;;;3.50;1.42;;;;;;;;;;4972602;28;20442;-66
2023/04/16 04:08:08;;;;;;;3.63;1.50;;;;;;;;;;4972301;28;20023;-66
2023/04/16 04:10:35;;;;;;;2.65;1.20;;;;;;;;;;4972840;28;20031;-60
2023/04/16 04:13:02;;;;;;;4.65;1.38;;;;;;;;;;4972598;28;20034;-69
2023/04/16 04:15:28;;;;;;;4.18;1.60;;;;;;;;;;4971629;28;20081;-69
2023/04/16 04:17:54;;;;;;;4.90;1.95;;;;;;;;;;4972321;28;20081;-61
2023/04/16 04:20:20;;;;;;;4.50;1.60;;;;;;;;;;4972682;28;20113;-61
2023/04/16 04:22:46;;;;;;;4.78;1.40;;;;;;;;;;4972326;28;20054;-75
2023/04/16 04:25:12;;;;;;;3.60;1.30;;;;;;;;;;4972335;28;20527;-72
2023/04/16 04:27:38;;;;;;;4.60;1.65;;;;;;;;;;4972530;28;20050;-72
2023/04/16 04:30:05;;;;;;;4.05;1.40;;;;;;;;;;4968949;28;20503;-74
2023/04/16 04:32:31;;;;;;;3.22;1.67;;;;;;;;;;4953117;29;20027;-62
2023/04/16 04:34:58;;;;;;;2.63;1.48;;;;;;;;;;4968720;28;20395;-60
2023/04/16 04:37:24;;;;;;;2.78;1.30;;;;;;;;;;4971653;28;20143;-72
2023/04/16 04:39:50;;;;;;;4.22;1.30;;;;;;;;;;4971979;28;20504;-69
2023/04/16 04:42:20;;;;;;;3.20;1.50;;;;;;;;;;4972456;28;20043;-72
2023/04/16 04:44:46;;;;;;;3.40;1.55;;;;;;;;;;4971529;28;20046;-72
2023/04/16 04:47:12;;;;;;;3.00;1.25;;;;;;;;;;4972046;28;20084;-75
2023/04/16 04:49:38;;;;;;;3.72;2.00;;;;;;;;;;4971534;28;20026;-60
2023/04/16 04:52:04;;;;;;;3.88;1.55;;;;;;;;;;4972256;28;20027;-62
2023/04/16 04:54:31;;;;;;;3.40;1.63;;;;;;;;;;4971889;28;20399;-69
2023/04/16 04:56:58;;;;;;;2.60;1.40;;;;;;;;;;4971965;28;20514;-75
2023/04/16 04:59:24;;;;;;;4.30;1.55;;;;;;;;;;4972011;28;20034;-75
2023/04/16 05:01:50;;;;;;;2.75;1.38;;;;;;;;;;4971348;28;20451;-75
2023/04/16 05:04:16;;;;;;;4.38;1.75;;;;;;;;;;4971874;28;20052;-75
2023/04/16 05:06:42;;;;;;;3.40;1.70;;;;;;;;;;4971819;28;20099;-75
2023/04/16 05:09:11;;;;;;;3.13;1.35;;;;;;;;;;4973744;28;20034;-76
2023/04/16 05:11:38;;;;;;;3.35;1.45;;;;;;;;;;4956797;29;20028;-74
2023/04/16 05:14:04;;;;;;;3.00;1.30;;;;;;;;;;4971136;28;20029;-61
2023/04/16 05:16:30;;;;;;;5.18;1.58;;;;;;;;;;4976071;28;20027;-63
2023/04/16 05:18:56;;;;;;;5.95;2.28;;;;;;;;;;4976058;28;20023;-72
2023/04/16 05:21:22;;;;;;;3.60;1.27;;;;;;;;;;4976035;28;20460;-61
2023/04/16 05:23:48;;;;;;;3.50;1.30;;;;;;;;;;4974739;28;20074;-61
2023/04/16 05:26:15;;;;;;;3.33;1.20;;;;;;;;;;4974542;28;20062;-64
2023/04/16 05:28:41;;;;;;;4.85;1.23;;;;;;;;;;4974549;28;20031;-67
2023/04/16 05:31:06;;;;;;;2.65;1.48;;;;;;;;;;4975954;28;20031;-61
2023/04/16 05:33:32;;;;;;;3.33;1.52;;;;;;;;;;4975398;28;20081;-64
2023/04/16 05:35:58;;;;;;;3.75;1.20;;;;;;;;;;4975728;28;20419;-60
2023/04/16 05:38:24;;;;;;;2.60;1.20;;;;;;;;;;4975590;28;20031;-61
2023/04/16 05:40:50;;;;;;;3.25;1.60;;;;;;;;;;4974914;28;20041;-60
2023/04/16 05:43:17;;;;;;;2.42;1.05;;;;;;;;;;4975254;28;20118;-61
2023/04/16 05:45:43;;;;;;;3.28;1.27;;;;;;;;;;4974925;28;20039;-62
2023/04/16 05:48:09;;;;;;;4.55;1.42;;;;;;;;;;4974730;28;20031;-60
2023/04/16 05:50:35;;;;;;;6.65;1.88;;;;;;;;;;4974142;28;20038;-61
2023/04/16 05:53:02;;;;;;;3.08;1.10;;;;;;;;;;4974838;28;20495;-72
2023/04/16 05:55:28;;;;;;;2.50;1.20;;;;;;;;;;4975782;28;20030;-68
2023/04/16 05:57:54;;;;;;;4.72;1.33;;;;;;;;;;4973718;28;20022;-71
2023/04/16 06:00:20;;;;;;;3.47;1.40;;;;;;;;;;4975261;28;20034;-69
2023/04/16 06:02:46;;;;;;;4.82;1.52;;;;;;;;;;4974715;28;20023;-70
2023/04/16 06:05:12;;;;;;;1.67;1.00;;;;;;;;;;4974993;28;20121;-76
2023/04/16 06:07:38;;;;;;;3.13;1.58;;;;;;;;;;4974850;28;20041;-66
2023/04/16 06:10:04;;;;;;;4.20;1.80;;;;;;;;;;4974713;28;20074;-60
2023/04/16 06:12:30;;;;;;;5.72;1.20;;;;;;;;;;4974534;28;20050;-61
2023/04/16 06:14:56;;;;;;;5.68;1.15;;;;;;;;;;4975133;28;20019;-60
2023/04/16 06:17:22;;;;;;;4.30;1.10;;;;;;;;;;4975197;28;20034;-61
2023/04/16 06:19:48;;;;;;;2.83;1.08;;;;;;;;;;4974315;28;20502;-61
2023/04/16 06:22:14;;;;;;;4.53;1.30;;;;;;;;;;4975125;28;20117;-74
2023/04/16 06:24:40;;;;;;;3.92;1.20;;;;;;;;;;4974050;28;20042;-77
2023/04/16 06:27:06;;;;;;;2.40;1.02;;;;;;;;;;4974334;28;20035;-72
2023/04/16 06:29:32;;;;;;;2.53;1.08;;;;;;;;;;4973884;28;20037;-75
2023/04/16 06:31:58;;;;;;;6.75;1.30;;;;;;;;;;4974668;28;20055;-71
2023/04/16 06:34:24;;;;;;;2.13;1.02;;;;;;;;;;4974295;28;20061;-66
2023/04/16 06:36:50;;;;;;;3.25;1.20;;;;;;;;;;4974392;28;20038;-74
2023/04/16 06:39:16;;;;;;;2.13;0.93;;;;;;;;;;4974116;28;20038;-73
2023/04/16 06:41:42;;;;;;;2.95;1.02;;;;;;;;;;4974415;28;20031;-71
2023/04/16 06:44:08;;;;;;;7.70;1.30;;;;;;;;;;4973915;28;20360;-75
2023/04/16 06:46:34;;;;;;;3.42;1.08;;;;;;;;;;4973336;28;20041;-69
2023/04/16 06:49:01;;;;;;;5.97;1.75;;;;;;;;;;4971280;28;20031;-63
2023/04/16 06:51:27;;;;;;;8.25;1.42;;;;;;;;;;4955231;29;20492;-73
2023/04/16 06:53:53;;;;;;;9.52;1.25;;;;;;;;;;4971534;28;20073;-60
2023/04/16 06:56:18;;;;;;;5.50;1.10;;;;;;;;;;4974072;28;20037;-63
2023/04/16 06:58:45;;;;;;;2.90;1.20;;;;;;;;;;4972469;28;20110;-63
2023/04/16 07:01:11;;;;;;;2.67;1.38;;;;;;;;;;4972729;28;20033;-62
2023/04/16 07:03:37;;;;;;;5.40;1.10;;;;;;;;;;4973701;28;20035;-64
2023/04/16 07:06:03;;;;;;;4.03;1.20;;;;;;;;;;4973782;28;20066;-68
2023/04/16 07:08:29;;;;;;;3.45;1.17;;;;;;;;;;4973913;28;20054;-60
2023/04/16 07:10:55;;;;;;;2.45;1.00;;;;;;;;;;4973452;28;20487;-65
2023/04/16 07:13:21;;;;;;;2.88;1.13;;;;;;;;;;4973927;28;20034;-61
2023/04/16 07:15:47;;;;;;;2.55;1.00;;;;;;;;;;4973064;28;20034;-61
2023/04/16 07:18:13;;;;;;;4.75;1.40;;;;;;;;;;4973538;28;20117;-60
2023/04/16 07:20:39;;;;;;;2.95;1.30;;;;;;;;;;4957933;28;20035;-68
2023/04/16 07:23:05;;;;;;;4.93;0.90;;;;;;;;;;4958039;28;20427;-71
2023/04/16 07:25:31;;;;;;;2.17;1.00;;;;;;;;;;4973606;28;20039;-61
2023/04/16 07:27:57;;;;;;;3.95;1.27;;;;;;;;;;4973577;28;20113;-69
2023/04/16 07:30:23;;;;;;;5.20;1.30;;;;;;;;;;4972929;28;20570;-60
2023/04/16 07:32:50;;;;;;;3.45;1.33;;;;;;;;;;4972953;28;20046;-60
2023/04/16 07:35:16;;;;;;;3.28;0.98;;;;;;;;;;4973360;28;20062;-67
2023/04/16 07:37:43;;;;;;;2.90;1.10;;;;;;;;;;4973098;28;20058;-61
2023/04/16 07:40:09;;;;;;;2.58;1.02;;;;;;;;;;4973243;28;20442;-61
2023/04/16 07:42:35;;;;;;;5.05;1.45;;;;;;;;;;4973021;28;20047;-60
2023/04/16 07:45:01;;;;;;;4.80;0.90;;;;;;;;;;4976782;28;20037;-73
2023/04/16 07:47:27;;;;;;;3.38;1.30;;;;;;;;;;4981572;28;20379;-71
2023/04/16 07:49:53;;;;;;;3.58;1.23;;;;;;;;;;4982854;28;20079;-73
2023/04/16 07:52:19;;;;;;;6.07;1.52;;;;;;;;;;4973337;28;20027;-69
2023/04/16 07:54:45;;;;;;;3.65;1.23;;;;;;;;;;4972763;28;20113;-72
2023/04/16 07:57:12;;;;;;;4.72;1.73;;;;;;;;;;4980909;28;20080;-72
2023/04/16 07:59:37;;;;;;;3.33;0.90;;;;;;;;;;4976096;28;20027;-67
2023/04/16 08:02:04;;;;;;;3.75;1.13;;;;;;;;;;4973321;28;20038;-72
2023/04/16 08:04:30;;;;;;;2.33;1.10;;;;;;;;;;4981586;28;20031;-70
2023/04/16 08:06:56;;;;;;;3.67;1.23;;;;;;;;;;4987448;28;20026;-59
2023/04/16 08:09:23;;;;;;;3.65;1.30;;;;;;;;;;4992469;28;20089;-61
2023/04/16 08:11:49;;;;;;;3.67;1.08;;;;;;;;;;4984862;28;20444;-71
2023/04/16 08:14:16;;;;;;;3.95;1.33;;;;;;;;;;4973261;28;20034;-72
2023/04/16 08:16:42;;;;;;;4.95;1.13;;;;;;;;;;4972835;28;20031;-72
2023/04/16 08:19:08;;;;;;;4.70;1.10;;;;;;;;;;4986448;28;20106;-73
2023/04/16 08:21:34;;;;;;;3.95;1.13;;;;;;;;;;4991880;28;20030;-74
2023/04/16 08:24:00;;;;;;;4.50;1.38;;;;;;;;;;4992547;28;20402;-65
2023/04/16 08:26:26;;;;;;;10.23;1.65;;;;;;;;;;4983410;28;20109;-75
2023/04/16 08:28:52;;;;;;;6.85;1.17;;;;;;;;;;4988363;28;20479;-75
2023/04/16 08:31:18;;;;;;;10.35;1.10;;;;;;;;;;4991420;28;20031;-78
2023/04/16 08:33:44;;;;;;;6.13;1.50;;;;;;;;;;4991716;28;20105;-60
2023/04/16 08:36:10;;;;;;;8.65;1.83;;;;;;;;;;4991753;28;20158;-60
2023/04/16 08:38:36;;;;;;;4.75;1.15;;;;;;;;;;4991785;28;20463;-66
2023/04/16 08:41:02;;;;;;;6.95;1.00;;;;;;;;;;4992126;28;20038;-59
2023/04/16 08:43:30;;;;;;;9.40;1.38;;;;;;;;;;4975942;28;20383;-62
2023/04/16 08:45:58;;;;;;;10.10;1.80;;;;;;;;;;4972685;28;20051;-71
2023/04/16 08:48:24;;;;;;;8.45;1.65;;;;;;;;;;4972077;28;20031;-60
2023/04/16 08:50:52;;;;;;;8.90;1.65;;;;;;;;;;4985870;28;20045;-66
2023/04/16 08:53:22;;;;;;;11.60;1.70;;;;;;;;;;4991644;28;20022;-62
2023/04/16 08:55:48;;;;;;;6.18;1.95;;;;;;;;;;4985485;28;20030;-64
2023/04/16 08:58:15;;;;;;;6.18;1.30;;;;;;;;;;4983795;28;20486;-63
2023/04/16 09:00:41;;;;;;;13.55;2.05;;;;;;;;;;4985951;28;20077;-60
2023/04/16 09:03:08;;;;;;;7.47;2.03;;;;;;;;;;4982983;28;20475;-63
2023/04/16 09:05:34;;;;;;;7.47;1.83;;;;;;;;;;4979954;28;20033;-66
2023/04/16 09:08:00;;;;;;;5.63;1.60;;;;;;;;;;4980589;28;20062;-61
2023/04/16 09:10:27;;;;;;;9.93;1.67;;;;;;;;;;4980184;28;20517;-68
2023/04/16 09:12:56;;;;;;;6.82;1.55;;;;;;;;;;4976100;28;20038;-59
2023/04/16 09:15:23;;;;;;;5.45;1.45;;;;;;;;;;4970450;28;20026;-70
2023/04/16 09:17:49;;;;;;;4.95;1.58;;;;;;;;;;4971969;28;20034;-60
2023/04/16 09:20:15;;;;;;;5.55;1.92;;;;;;;;;;4971021;28;20499;-66
2023/04/16 09:22:41;;;;;;;9.68;1.60;;;;;;;;;;4972034;28;20038;-71
2023/04/16 09:25:07;;;;;;;6.68;1.60;;;;;;;;;;4972293;28;20097;-62
2023/04/16 09:27:33;;;;;;;14.40;1.83;;;;;;;;;;4971959;28;20031;-69
2023/04/16 09:29:59;;;;;;;11.48;1.77;;;;;;;;;;4972533;28;20049;-61
2023/04/16 09:32:26;;;;;;;9.55;1.50;;;;;;;;;;4971986;28;20046;-62
2023/04/16 09:34:56;;;;;;;6.00;1.60;;;;;;;;;;4971898;28;20019;-60
2023/04/16 09:37:22;;;;;;;7.38;1.63;;;;;;;;;;4971989;28;20154;-64
2023/04/16 09:39:58;;;;;;;11.98;1.90;;;;;;;;;;4975646;28;20019;-64
2023/04/16 09:42:26;;;;;;;5.30;1.65;;;;;;;;;;4971697;28;20042;-65
2023/04/16 09:44:52;;;;;;;12.25;1.67;;;;;;;;;;4973833;28;20102;-63
2023/04/16 09:47:18;;;;;;;11.65;1.52;;;;;;;;;;4974389;28;20031;-65
2023/04/16 09:49:45;;;;;;;14.10;2.03;;;;;;;;;;4984532;28;20106;-65
2023/04/16 09:52:15;;;;;;;12.93;1.80;;;;;;;;;;4971401;28;20035;-64
2023/04/16 09:54:52;;;;;;;12.98;1.98;;;;;;;;;;4972232;28;20038;-65
2023/04/16 09:57:21;;;;;;;12.80;2.10;;;;;;;;;;4973793;28;20035;-65
2023/04/16 09:59:51;;;;;;;5.47;1.73;;;;;;;;;;4984158;28;20019;-65
2023/04/16 10:02:18;;;;;;;6.57;1.98;;;;;;;;;;4979690;28;20033;-65
2023/04/16 10:04:45;;;;;;;9.02;1.40;;;;;;;;;;4990320;28;20041;-65
2023/04/16 10:07:12;;;;;;;4.05;1.60;;;;;;;;;;4979373;28;20030;-65
2023/04/16 10:09:38;;;;;;;9.05;1.48;;;;;;;;;;4986295;28;20031;-65
2023/04/16 10:12:08;;;;;;;4.15;1.80;;;;;;;;;;4986434;28;20092;-65
2023/04/16 10:14:34;;;;;;;6.28;1.70;;;;;;;;;;4977344;28;20026;-66
2023/04/16 10:17:00;;;;;;;6.53;1.75;;;;;;;;;;4973617;28;20031;-65
2023/04/16 10:19:27;;;;;;;4.47;1.38;;;;;;;;;;4981475;28;20449;-64
2023/04/16 10:21:54;;;;;;;7.15;1.33;;;;;;;;;;4991126;28;20025;-64
2023/04/16 10:24:20;;;;;;;7.90;1.60;;;;;;;;;;4974411;28;20050;-63
2023/04/16 10:26:46;;;;;;;10.52;1.48;;;;;;;;;;4974755;28;20530;-65
2023/04/16 10:29:12;;;;;;;7.28;1.45;;;;;;;;;;4977934;28;20475;-65
2023/04/16 10:31:39;;;;;;;7.18;1.55;;;;;;;;;;4974716;28;20038;-65
2023/04/16 10:34:06;;;;;;;6.70;1.67;;;;;;;;;;4974581;28;20442;-65
2023/04/16 10:36:35;;;;;;;3.83;1.42;;;;;;;;;;4975137;28;20515;-66
2023/04/16 10:39:01;;;;;;;6.00;1.65;;;;;;;;;;4989902;28;20165;-66
2023/04/16 10:41:27;;;;;;;11.88;1.50;;;;;;;;;;4979067;28;20105;-65
2023/04/16 10:44:04;;;;;;;6.22;1.58;;;;;;;;;;4988741;28;20118;-65
2023/04/16 10:46:30;;;;;;;8.13;1.80;;;;;;;;;;4986924;28;20034;-65
2023/04/16 10:48:59;;;;;;;6.60;1.48;;;;;;;;;;4989856;28;20029;-65
2023/04/16 10:51:35;;;;;;;11.15;2.30;;;;;;;;;;4978438;28;20109;-65
2023/04/16 10:54:08;;;;;;;8.32;1.75;;;;;;;;;;4983692;28;20113;-65
2023/04/16 10:56:35;;;;;;;6.63;1.38;;;;;;;;;;4976053;28;20080;-65
2023/04/16 10:59:01;;;;;;;8.20;1.63;;;;;;;;;;4979118;28;20368;-64
2023/04/16 11:01:31;;;;;;;4.70;1.50;;;;;;;;;;4977084;28;20109;-64
2023/04/16 11:04:01;;;;;;;3.63;1.40;;;;;;;;;;4980703;28;20027;-64
2023/04/16 11:06:28;;;;;;;4.88;1.42;;;;;;;;;;4983844;28;20045;-65
2023/04/16 11:08:54;;;;;;;12.10;1.50;;;;;;;;;;4992301;28;20057;-65
2023/04/16 11:11:20;;;;;;;6.97;1.70;;;;;;;;;;4986847;28;20107;-65
2023/04/16 11:13:46;;;;;;;9.30;2.47;;;;;;;;;;4974224;28;20093;-66
2023/04/16 11:16:13;;;;;;;2.92;1.20;;;;;;;;;;4973575;28;20491;-66
2023/04/16 11:18:42;;;;;;;4.05;1.33;;;;;;;;;;4973491;28;20023;-65
2023/04/16 11:21:09;;;;;;;4.80;1.70;;;;;;;;;;4973703;28;20035;-65
2023/04/16 11:23:47;;;;;;;8.02;1.60;;;;;;;;;;4973461;28;20494;-65
2023/04/16 11:26:26;;;;;;;4.57;1.42;;;;;;;;;;4970174;28;20033;-65
2023/04/16 11:28:53;;;;;;;4.28;1.48;;;;;;;;;;4977966;28;20027;-65
2023/04/16 11:31:19;;;;;;;3.35;1.35;;;;;;;;;;4982651;28;20031;-65
2023/04/16 11:33:45;;;;;;;4.25;1.67;;;;;;;;;;4981306;28;20047;-64
2023/04/16 11:36:11;;;;;;;5.75;1.60;;;;;;;;;;4981299;28;20041;-65
2023/04/16 11:38:40;;;;;;;5.20;1.60;;;;;;;;;;4981314;28;20453;-66
2023/04/16 11:41:06;;;;;;;5.10;1.40;;;;;;;;;;4982537;28;20026;-65
2023/04/16 11:43:32;;;;;;;3.80;1.20;;;;;;;;;;4980429;28;20467;-65
2023/04/16 11:45:59;;;;;;;5.72;1.25;;;;;;;;;;4980908;28;20103;-65
2023/04/16 11:48:25;;;;;;;7.05;1.52;;;;;;;;;;4973636;28;20026;-65
2023/04/16 11:50:58;;;;;;;3.55;1.35;;;;;;;;;;4979902;28;20090;-65
2023/04/16 11:53:24;;;;;;;6.75;1.88;;;;;;;;;;4982578;28;20105;-65
2023/04/16 11:55:50;;;;;;;2.97;1.13;;;;;;;;;;4979609;28;20027;-65
2023/04/16 11:58:16;;;;;;;5.43;1.77;;;;;;;;;;4981357;28;20027;-65
2023/04/16 12:00:42;;;;;;;7.97;1.60;;;;;;;;;;4980257;28;20387;-65
2023/04/16 12:03:08;;;;;;;4.40;1.30;;;;;;;;;;4982040;28;20168;-65
2023/04/16 12:05:38;;;;;;;2.50;1.08;;;;;;;;;;4979312;28;20110;-65
2023/04/16 12:08:08;;;;;;;4.68;1.45;;;;;;;;;;4980768;28;20055;-65
2023/04/16 12:10:36;;;;;;;5.15;1.60;;;;;;;;;;4978988;28;20442;-65
2023/04/16 12:13:15;;;;;;;6.38;1.17;;;;;;;;;;4980148;28;20034;-65
2023/04/16 12:15:45;;;;;;;3.58;1.33;;;;;;;;;;4979815;28;20391;-65
2023/04/16 12:18:11;;;;;;;4.07;1.30;;;;;;;;;;4988380;28;20030;-65
2023/04/16 12:20:40;;;;;;;3.13;1.52;;;;;;;;;;4989565;28;20022;-65
2023/04/16 12:23:07;;;;;;;7.00;1.58;;;;;;;;;;4972776;28;20411;-65
2023/04/16 12:25:33;;;;;;;3.97;1.30;;;;;;;;;;4972447;28;20815;-65
2023/04/16 12:28:00;;;;;;;2.88;1.30;;;;;;;;;;4972886;28;20057;-65
2023/04/16 12:30:26;;;;;;;4.93;1.65;;;;;;;;;;4973048;28;20033;-65
2023/04/16 12:32:53;;;;;;;4.47;1.40;;;;;;;;;;4972410;28;20027;-65
2023/04/16 12:35:32;;;;;;;3.63;1.10;;;;;;;;;;4971844;28;20057;-64
2023/04/16 12:37:59;;;;;;;2.83;1.00;;;;;;;;;;4975179;28;20030;-64
2023/04/16 12:40:25;;;;;;;4.32;1.00;;;;;;;;;;4977135;28;20054;-64
2023/04/16 12:42:51;;;;;;;4.85;1.27;;;;;;;;;;4987967;28;20164;-65
2023/04/16 12:45:17;;;;;;;3.25;1.20;;;;;;;;;;4977320;28;20057;-64
2023/04/16 12:47:43;;;;;;;5.55;1.30;;;;;;;;;;4985834;28;20490;-65
2023/04/16 12:50:10;;;;;;;5.22;1.35;;;;;;;;;;4976986;28;20037;-64
2023/04/16 12:52:36;;;;;;;5.25;1.55;;;;;;;;;;4979037;28;20027;-65
2023/04/16 12:55:02;;;;;;;3.60;1.10;;;;;;;;;;4991404;28;20030;-65
2023/04/16 12:57:28;;;;;;;3.72;1.60;;;;;;;;;;4992082;28;20105;-65
2023/04/16 12:59:56;;;;;;;5.15;1.58;;;;;;;;;;4991406;28;20464;-63
2023/04/16 13:02:22;;;;;;;4.43;1.70;;;;;;;;;;4991561;28;20026;-64
2023/04/16 13:04:48;;;;;;;3.03;1.33;;;;;;;;;;4975349;28;20611;-64
2023/04/16 13:07:14;;;;;;;4.40;1.40;;;;;;;;;;4972739;28;20096;-64
2023/04/16 13:09:40;;;;;;;3.05;1.10;;;;;;;;;;4971707;28;20479;-65
2023/04/16 13:12:06;;;;;;;3.28;1.38;;;;;;;;;;4971847;28;20115;-64
2023/04/16 13:14:32;;;;;;;4.72;1.20;;;;;;;;;;4971864;28;20031;-69
2023/04/16 13:16:58;;;;;;;2.17;1.10;;;;;;;;;;4972261;28;20027;-66
2023/04/16 13:19:24;;;;;;;3.13;1.20;;;;;;;;;;4971326;28;20027;-69
2023/04/16 13:21:50;;;;;;;5.47;1.42;;;;;;;;;;4970325;28;20054;-69
2023/04/16 13:24:16;;;;;;;3.45;1.02;;;;;;;;;;4971536;28;20037;-69
2023/04/16 13:26:42;;;;;;;3.03;1.30;;;;;;;;;;4971455;28;20035;-69
2023/04/16 13:29:09;;;;;;;5.00;1.48;;;;;;;;;;4971867;28;20035;-69
2023/04/16 13:31:35;;;;;;;6.93;1.33;;;;;;;;;;4975245;28;20556;-69
2023/04/16 13:34:02;;;;;;;5.70;1.58;;;;;;;;;;4975783;28;20031;-68
2023/04/16 13:36:29;;;;;;;8.25;1.50;;;;;;;;;;4975887;28;20034;-69
2023/04/16 13:38:55;;;;;;;5.68;1.30;;;;;;;;;;4975885;28;20075;-67
2023/04/16 13:41:21;;;;;;;2.35;1.25;;;;;;;;;;4975604;28;20390;-68
2023/04/16 13:43:47;;;;;;;4.57;1.20;;;;;;;;;;4975221;28;20035;-67
2023/04/16 13:46:13;;;;;;;2.20;1.00;;;;;;;;;;4975068;28;20037;-68
2023/04/16 13:48:39;;;;;;;4.10;1.20;;;;;;;;;;4975429;28;20030;-67
2023/04/16 13:51:07;;;;;;;3.42;1.30;;;;;;;;;;4974641;28;20451;-69
2023/04/16 13:53:34;;;;;;;2.95;1.25;;;;;;;;;;4975906;28;20037;-69
2023/04/16 13:56:02;;;;;;;2.63;1.13;;;;;;;;;;4974844;28;20027;-69
2023/04/16 13:58:28;;;;;;;2.47;1.08;;;;;;;;;;4974404;28;20026;-69
2023/04/16 14:00:54;;;;;;;3.20;1.17;;;;;;;;;;4974828;28;20038;-67
2023/04/16 14:03:20;;;;;;;2.67;1.20;;;;;;;;;;4975335;28;20062;-70
2023/04/16 14:05:46;;;;;;;2.38;1.20;;;;;;;;;;4969221;28;20062;-68
2023/04/16 14:08:15;;;;;;;4.40;1.52;;;;;;;;;;4955974;29;20020;-69
2023/04/16 14:10:41;;;;;;;2.15;0.93;;;;;;;;;;4954917;29;20034;-68
2023/04/16 14:13:07;;;;;;;3.35;1.30;;;;;;;;;;4955549;29;20023;-68
2023/04/16 14:15:33;;;;;;;2.88;1.20;;;;;;;;;;4971502;28;20395;-68
2023/04/16 14:18:00;;;;;;;2.50;1.25;;;;;;;;;;4955926;28;20098;-68
2023/04/16 14:20:26;;;;;;;3.80;1.42;;;;;;;;;;4968559;28;20487;-67
2023/04/16 14:22:52;;;;;;;5.88;1.45;;;;;;;;;;4973515;28;20102;-68
2023/04/16 14:25:18;;;;;;;1.95;1.10;;;;;;;;;;4974843;28;20185;-69
2023/04/16 14:27:44;;;;;;;4.00;1.45;;;;;;;;;;4974753;28;20102;-69
2023/04/16 14:30:10;;;;;;;3.35;1.30;;;;;;;;;;4974620;28;20037;-69
2023/04/16 14:32:36;;;;;;;3.60;1.48;;;;;;;;;;4974512;28;20023;-68
2023/04/16 14:35:03;;;;;;;2.33;1.10;;;;;;;;;;4974201;28;20117;-68
2023/04/16 14:37:29;;;;;;;2.15;1.20;;;;;;;;;;4975085;28;20031;-68
2023/04/16 14:39:55;;;;;;;2.50;1.48;;;;;;;;;;4975015;28;20030;-67